Terminal Aerodrome Forecast
Issued by NWS

Home | Current Version | Previous Version | Text Only | Print | Product List | Glossary On
Versions: 1 2 3 4 5 6 7 8 9 10 11 12 13 14 15 16 17 18
000
FTUS42 KFFC 230500
TAFRYY
TAF
KRYY 230522Z 2306/2406 27005KT P6SM SKC
     FM230900 32006KT 6SM BR SKC
     FM231500 32010KT P6SM SKC
     FM232300 32006KT P6SM SKC
      AMD NOT SKED TIL 231200=

USA.gov is the U.S. government's official web portal to all federal, state and local government web resources and services.